KG-0018 weather

Kyzyl-Kiya Airport
Kyzyl-Kiya, Batken Region, Kyrgyzstan

Public forecast

Using degrees Celsius for public forecast. Weather courtesy of forecast.io.

METAR (pilot weather report)

Closest report is Osh Airport, 39.7 nm (73.4 km) ENE. Retrieved 2019/02/17 11:00 UTC (22 minutes ago):

UCFO 171100Z 29002MPS 4800 FU FEW050 BKN100 06/01 Q1008 R12/09//95 NOSIG

TAF (pilot weather forecast)

Closest forecast is Osh Airport, 39.7 nm (73.4 km) ENE. Retrieved 2019/02/17 06:00 UTC (5 hours ago):

TAF UCFO 170445Z 1706/1806 28005MPS 3000 BR SCT010 BKN030CB TEMPO 1706/1712 25007G12MPS 1500 BR FU SCT003 BKN010CB BECMG 1712/1714 17005MPS